Time;durP1;ratioP1;P1;durP2;ratioP2;P2;SDS_P1;SDS_P2;PMS_P1;PMS_P2;Temp;Humidity;BMP_temperature;BMP_pressure;BME280_temperature;BME280_humidity;BME280_pressure;Samples;Min_cycle;Max_cycle;Signal;HPM_P1;HPM_P2
2021/07/05 00:01:13;;;;;;;1.40;1.10;;;25.00;44.00;;;;;;4991019;28;20235;-40
2021/07/05 00:03:40;;;;;;;1.02;1.00;;;25.00;44.00;;;;;;4993844;28;20213;-38
2021/07/05 00:06:06;;;;;;;1.85;1.13;;;25.00;44.00;;;;;;4981689;28;20287;-38
2021/07/05 00:08:33;;;;;;;0.90;0.90;;;25.00;44.00;;;;;;4990286;28;20307;-39
2021/07/05 00:10:59;;;;;;;1.25;1.20;;;25.00;43.90;;;;;;4988947;28;20242;-44
2021/07/05 00:13:26;;;;;;;1.00;1.00;;;25.00;44.00;;;;;;4989519;28;20239;-38
2021/07/05 00:15:54;;;;;;;1.00;0.95;;;25.00;43.90;;;;;;4986113;28;20211;-41
2021/07/05 00:18:21;;;;;;;0.90;0.90;;;25.00;43.80;;;;;;4993239;28;20591;-47
2021/07/05 00:20:47;;;;;;;1.02;0.73;;;25.00;43.80;;;;;;4999848;28;20291;-53
2021/07/05 00:23:14;;;;;;;1.15;1.10;;;25.00;43.80;;;;;;4994802;28;20233;-43
2021/07/05 00:25:40;;;;;;;1.45;1.20;;;25.00;43.80;;;;;;4994144;28;20215;-43
2021/07/05 00:28:07;;;;;;;1.13;1.00;;;25.00;43.80;;;;;;4994585;28;20755;-45
2021/07/05 00:30:33;;;;;;;1.00;1.00;;;25.00;43.80;;;;;;4994789;28;20311;-37
2021/07/05 00:32:59;;;;;;;1.25;0.93;;;25.00;43.80;;;;;;4994140;28;20227;-51
2021/07/05 00:35:26;;;;;;;1.10;1.02;;;25.00;43.80;;;;;;4994628;28;20242;-46
2021/07/05 00:37:52;;;;;;;1.35;1.10;;;25.00;43.80;;;;;;4995107;28;20251;-52
2021/07/05 00:40:19;;;;;;;1.10;1.00;;;25.00;43.80;;;;;;4994702;28;20295;-45
2021/07/05 00:42:45;;;;;;;0.88;0.88;;;25.00;43.80;;;;;;4993508;28;20212;-48
2021/07/05 00:45:12;;;;;;;0.90;0.90;;;25.00;43.80;;;;;;4993948;28;20247;-45
2021/07/05 00:47:38;;;;;;;1.30;1.20;;;25.00;43.80;;;;;;4994260;28;20642;-48
2021/07/05 00:50:04;;;;;;;1.30;1.10;;;25.00;43.80;;;;;;4994424;28;20561;-41
2021/07/05 00:52:31;;;;;;;1.70;1.08;;;25.00;43.80;;;;;;4993500;28;20674;-41
2021/07/05 00:54:57;;;;;;;1.73;1.02;;;25.00;43.80;;;;;;4994617;28;20741;-40
2021/07/05 00:57:25;;;;;;;0.82;0.80;;;25.00;43.80;;;;;;4994088;28;20322;-45
2021/07/05 00:59:51;;;;;;;1.48;1.02;;;25.00;43.80;;;;;;4994089;28;20200;-52
2021/07/05 01:02:18;;;;;;;0.93;0.90;;;25.00;43.80;;;;;;4993989;28;20211;-44
2021/07/05 01:04:44;;;;;;;1.85;0.90;;;25.00;43.80;;;;;;4993728;28;20212;-41
2021/07/05 01:07:10;;;;;;;0.80;0.80;;;25.00;43.80;;;;;;4993583;28;20235;-44
2021/07/05 01:09:37;;;;;;;1.25;1.10;;;25.00;43.80;;;;;;4994037;28;20232;-45
2021/07/05 01:12:03;;;;;;;2.22;0.90;;;25.00;43.80;;;;;;4992318;28;20204;-42
2021/07/05 01:14:30;;;;;;;1.10;1.00;;;25.00;43.80;;;;;;4992823;28;20302;-47
2021/07/05 01:16:56;;;;;;;1.38;1.25;;;25.00;43.80;;;;;;4993284;28;20710;-39
2021/07/05 01:19:23;;;;;;;1.58;1.00;;;25.00;43.80;;;;;;4993807;28;20309;-42
2021/07/05 01:21:50;;;;;;;0.93;0.90;;;25.00;43.80;;;;;;4989924;28;20212;-45
2021/07/05 01:24:16;;;;;;;1.00;0.90;;;25.00;43.80;;;;;;4993197;28;20223;-50
2021/07/05 01:26:43;;;;;;;1.02;0.90;;;25.00;43.80;;;;;;4993250;28;20291;-48
2021/07/05 01:29:09;;;;;;;1.13;1.02;;;25.00;43.80;;;;;;4994053;28;20211;-49
2021/07/05 01:31:36;;;;;;;1.05;1.00;;;25.00;43.80;;;;;;4993676;28;20771;-47
2021/07/05 01:34:02;;;;;;;1.23;0.90;;;25.00;43.80;;;;;;4993555;28;20306;-37
2021/07/05 01:36:29;;;;;;;1.02;1.00;;;25.00;43.80;;;;;;4993756;28;20204;-42
2021/07/05 01:38:55;;;;;;;1.35;1.20;;;25.00;43.80;;;;;;4993581;28;20228;-48
2021/07/05 01:41:22;;;;;;;1.17;1.00;;;25.00;43.80;;;;;;4993126;28;20204;-47
2021/07/05 01:43:48;;;;;;;1.02;1.02;;;25.00;43.80;;;;;;4992980;28;20236;-45
2021/07/05 01:46:14;;;;;;;1.35;1.25;;;25.00;43.80;;;;;;4993107;28;20200;-52
2021/07/05 01:48:41;;;;;;;1.10;1.00;;;25.00;43.80;;;;;;4993629;28;20295;-46
2021/07/05 01:51:07;;;;;;;1.13;1.00;;;25.00;43.80;;;;;;4993620;28;20198;-50
2021/07/05 01:53:34;;;;;;;2.42;1.10;;;25.00;43.80;;;;;;4992832;28;20207;-51
2021/07/05 01:56:00;;;;;;;0.82;0.82;;;25.00;43.80;;;;;;4992795;28;20678;-37
2021/07/05 01:58:27;;;;;;;1.10;1.00;;;25.00;43.80;;;;;;4992996;28;20315;-51
2021/07/05 02:00:53;;;;;;;1.17;1.08;;;25.00;43.80;;;;;;4993118;28;20204;-56
2021/07/05 02:03:20;;;;;;;0.82;0.82;;;25.00;43.80;;;;;;4994466;28;20299;-51
2021/07/05 02:05:46;;;;;;;1.50;1.20;;;25.00;43.80;;;;;;4990993;28;20222;-40
2021/07/05 02:08:13;;;;;;;0.88;0.75;;;25.00;43.80;;;;;;4986179;28;20219;-47
2021/07/05 02:10:39;;;;;;;0.90;0.90;;;25.00;43.80;;;;;;4993081;28;20663;-53
2021/07/05 02:13:06;;;;;;;1.42;0.90;;;25.00;43.80;;;;;;4991934;28;20204;-45
2021/07/05 02:15:32;;;;;;;1.80;0.90;;;25.00;43.80;;;;;;4987800;28;20228;-52
2021/07/05 02:17:59;;;;;;;1.10;1.10;;;25.00;43.80;;;;;;4989579;28;20222;-50
2021/07/05 02:20:25;;;;;;;1.00;0.90;;;25.00;43.80;;;;;;5004992;28;20222;-53
2021/07/05 02:22:52;;;;;;;1.88;0.98;;;25.00;43.80;;;;;;5000759;28;20196;-36
2021/07/05 02:25:18;;;;;;;1.10;1.00;;;25.00;43.80;;;;;;4992834;28;20310;-53
2021/07/05 02:27:45;;;;;;;1.75;1.10;;;25.00;43.80;;;;;;4991878;28;20220;-48
2021/07/05 02:30:11;;;;;;;1.25;1.15;;;25.00;43.80;;;;;;4992638;28;20192;-51
2021/07/05 02:32:40;;;;;;;1.13;1.00;;;25.00;43.80;;;;;;4991011;28;20210;-53
2021/07/05 02:35:07;;;;;;;1.00;1.00;;;25.00;43.80;;;;;;4990815;28;20671;-48
2021/07/05 02:37:33;;;;;;;1.52;0.90;;;25.00;43.80;;;;;;4992123;28;20310;-47
2021/07/05 02:40:00;;;;;;;1.15;1.10;;;25.00;43.80;;;;;;4991645;28;20226;-56
2021/07/05 02:42:26;;;;;;;1.00;0.90;;;25.00;43.80;;;;;;4992076;28;20298;-40
2021/07/05 02:44:52;;;;;;;1.17;1.08;;;25.00;43.80;;;;;;4992068;28;20221;-48
2021/07/05 02:47:19;;;;;;;1.85;1.20;;;25.00;43.80;;;;;;4989984;28;20234;-48
2021/07/05 02:49:45;;;;;;;1.77;1.10;;;25.00;43.80;;;;;;4987085;28;20210;-45
2021/07/05 02:52:12;;;;;;;1.13;0.90;;;25.00;43.80;;;;;;4992128;28;20212;-50
2021/07/05 02:54:38;;;;;;;0.90;0.90;;;25.00;43.80;;;;;;4991741;28;20231;-54
2021/07/05 02:57:06;;;;;;;1.42;1.33;;;25.00;43.80;;;;;;4992173;28;20246;-43
2021/07/05 02:59:32;;;;;;;0.80;0.80;;;25.00;43.80;;;;;;4991938;28;20203;-55
2021/07/05 03:01:59;;;;;;;0.90;0.90;;;25.00;43.80;;;;;;4992345;28;20621;-53
2021/07/05 03:04:25;;;;;;;1.15;1.05;;;25.00;43.80;;;;;;4991579;28;20210;-52
2021/07/05 03:06:52;;;;;;;0.98;0.98;;;25.00;43.80;;;;;;4992222;28;20279;-45
2021/07/05 03:09:18;;;;;;;1.10;0.90;;;25.00;43.80;;;;;;4991887;28;20208;-40
2021/07/05 03:11:45;;;;;;;0.90;0.90;;;25.00;43.80;;;;;;5008501;28;20203;-41
2021/07/05 03:14:11;;;;;;;0.90;0.90;;;25.00;43.80;;;;;;5002373;28;20291;-49
2021/07/05 03:16:38;;;;;;;2.08;0.90;;;25.00;43.80;;;;;;4991546;28;20233;-47
2021/07/05 03:19:04;;;;;;;1.08;0.98;;;25.00;43.80;;;;;;4990090;28;20223;-45
2021/07/05 03:21:30;;;;;;;1.10;1.00;;;25.00;43.80;;;;;;4991683;28;20263;-53
2021/07/05 03:23:58;;;;;;;0.90;0.90;;;25.00;43.80;;;;;;4990824;28;20224;-45
2021/07/05 03:26:25;;;;;;;0.80;0.80;;;24.90;43.70;;;;;;4991517;28;20219;-51
2021/07/05 03:28:51;;;;;;;1.10;0.82;;;25.00;43.80;;;;;;4985892;28;20203;-54
2021/07/05 03:31:18;;;;;;;0.90;0.90;;;25.00;43.80;;;;;;4991811;28;20208;-50
2021/07/05 03:33:44;;;;;;;1.20;0.90;;;25.00;43.80;;;;;;4990790;28;20199;-47
2021/07/05 03:36:11;;;;;;;0.90;0.90;;;25.00;43.80;;;;;;4991754;28;20294;-50
2021/07/05 03:38:37;;;;;;;3.47;0.95;;;25.00;43.80;;;;;;4991189;28;20346;-44
2021/07/05 03:41:04;;;;;;;0.80;0.80;;;25.00;43.80;;;;;;4991217;28;20294;-49
2021/07/05 03:43:30;;;;;;;1.17;1.08;;;25.00;43.80;;;;;;4990908;28;20206;-51
2021/07/05 03:45:56;;;;;;;2.58;1.00;;;25.00;43.80;;;;;;4995634;28;20303;-57
2021/07/05 03:48:23;;;;;;;0.82;0.80;;;25.00;43.80;;;;;;4990989;28;20254;-55
2021/07/05 03:50:50;;;;;;;1.10;1.00;;;25.00;43.80;;;;;;4990895;28;20389;-45
2021/07/05 03:53:16;;;;;;;1.15;0.90;;;25.00;43.80;;;;;;4990912;28;20210;-50
2021/07/05 03:55:42;;;;;;;0.80;0.80;;;25.00;43.80;;;;;;4990908;28;20310;-41
2021/07/05 03:58:09;;;;;;;0.90;0.90;;;25.00;43.80;;;;;;4991617;28;20336;-46
2021/07/05 04:00:35;;;;;;;0.90;0.90;;;25.00;43.80;;;;;;4990794;28;20769;-44
2021/07/05 04:03:02;;;;;;;0.90;0.90;;;25.00;43.80;;;;;;4991175;28;20686;-47
2021/07/05 04:05:28;;;;;;;0.80;0.80;;;25.00;43.80;;;;;;4991034;28;20663;-44
2021/07/05 04:07:55;;;;;;;1.05;0.95;;;25.00;43.80;;;;;;4991301;28;20662;-43
2021/07/05 04:10:21;;;;;;;0.95;0.90;;;25.00;43.80;;;;;;4991052;28;20286;-38
2021/07/05 04:12:48;;;;;;;1.13;0.90;;;25.00;43.80;;;;;;4990894;28;20204;-40
2021/07/05 04:15:14;;;;;;;0.80;0.80;;;25.00;43.80;;;;;;4990691;28;20607;-39
2021/07/05 04:17:41;;;;;;;1.25;0.95;;;25.00;43.80;;;;;;4989747;28;20326;-38
2021/07/05 04:20:07;;;;;;;1.55;1.00;;;25.00;43.80;;;;;;4990426;28;20208;-47
2021/07/05 04:22:34;;;;;;;1.13;0.80;;;25.00;43.80;;;;;;4990906;28;20262;-47
2021/07/05 04:25:00;;;;;;;1.05;0.95;;;25.00;43.80;;;;;;4990465;28;20260;-51
2021/07/05 04:27:26;;;;;;;1.25;0.95;;;25.00;43.80;;;;;;4990555;28;20228;-45
2021/07/05 04:29:53;;;;;;;0.80;0.80;;;25.00;43.80;;;;;;4990818;28;20308;-41
2021/07/05 04:32:19;;;;;;;1.27;0.70;;;24.90;43.70;;;;;;4991098;28;20239;-46
2021/07/05 04:34:46;;;;;;;1.08;1.00;;;25.00;43.80;;;;;;4990765;28;20224;-46
2021/07/05 04:37:12;;;;;;;0.90;0.90;;;25.00;43.80;;;;;;4991204;28;20216;-45
2021/07/05 04:39:39;;;;;;;0.90;0.90;;;25.00;43.80;;;;;;5001110;28;20691;-46
2021/07/05 04:42:05;;;;;;;0.80;0.80;;;25.00;43.80;;;;;;4997999;28;20228;-49
2021/07/05 04:44:32;;;;;;;1.08;0.98;;;25.00;43.80;;;;;;4990417;28;20253;-49
2021/07/05 04:46:58;;;;;;;1.63;0.93;;;25.00;43.80;;;;;;4990405;28;20312;-57
2021/07/05 04:49:26;;;;;;;0.80;0.80;;;25.00;43.80;;;;;;4990260;28;20204;-51
2021/07/05 04:51:52;;;;;;;0.80;0.80;;;25.00;43.80;;;;;;4990847;28;20215;-48
2021/07/05 04:54:19;;;;;;;1.08;0.90;;;25.00;43.80;;;;;;4990454;28;20666;-49
2021/07/05 04:56:45;;;;;;;1.20;1.10;;;25.00;43.80;;;;;;4990448;28;20649;-53
2021/07/05 04:59:12;;;;;;;0.80;0.80;;;25.00;43.80;;;;;;4990179;28;20195;-46
2021/07/05 05:01:38;;;;;;;0.82;0.82;;;25.00;43.80;;;;;;4990131;28;20675;-52
2021/07/05 05:04:05;;;;;;;0.98;0.82;;;25.00;43.80;;;;;;4992195;28;20678;-43
2021/07/05 05:06:32;;;;;;;0.73;0.70;;;25.00;43.80;;;;;;4994143;28;20318;-38
2021/07/05 05:08:58;;;;;;;0.80;0.80;;;25.00;43.80;;;;;;4994303;28;20278;-44
2021/07/05 05:11:24;;;;;;;0.88;0.88;;;25.00;43.80;;;;;;4993987;28;20233;-48
2021/07/05 05:13:51;;;;;;;2.15;1.15;;;25.00;43.80;;;;;;4993133;28;20200;-50
2021/07/05 05:16:17;;;;;;;1.15;1.00;;;25.00;43.80;;;;;;4994231;28;20258;-46
2021/07/05 05:18:44;;;;;;;0.80;0.80;;;25.00;43.80;;;;;;4992863;28;20302;-48
2021/07/05 05:21:11;;;;;;;2.03;0.93;;;25.00;43.80;;;;;;4992647;28;20196;-41
2021/07/05 05:23:37;;;;;;;0.70;0.70;;;25.00;43.80;;;;;;4993281;28;20294;-52
2021/07/05 05:26:04;;;;;;;0.90;0.90;;;25.00;43.70;;;;;;4994124;28;20254;-54
2021/07/05 05:28:31;;;;;;;1.42;0.90;;;25.00;43.80;;;;;;4992201;28;20200;-51
2021/07/05 05:30:58;;;;;;;1.45;0.90;;;25.00;43.80;;;;;;4983534;28;20207;-42
2021/07/05 05:33:25;;;;;;;1.00;0.90;;;25.00;43.80;;;;;;4973941;28;20291;-44
2021/07/05 05:35:52;;;;;;;1.67;0.98;;;25.00;43.70;;;;;;4981793;28;20662;-56
2021/07/05 05:38:18;;;;;;;1.25;0.80;;;25.00;43.70;;;;;;4993265;28;20290;-41
2021/07/05 05:40:44;;;;;;;1.00;0.90;;;25.00;43.70;;;;;;4992923;28;20196;-42
2021/07/05 05:43:11;;;;;;;0.95;0.90;;;25.00;43.60;;;;;;4993873;28;20216;-52
2021/07/05 05:45:37;;;;;;;0.80;0.77;;;25.00;43.60;;;;;;4993392;28;20226;-42
2021/07/05 05:48:04;;;;;;;1.52;0.80;;;25.00;43.60;;;;;;4993581;28;20290;-42
2021/07/05 05:50:30;;;;;;;0.80;0.80;;;25.00;43.60;;;;;;4992691;28;20338;-43
2021/07/05 05:52:57;;;;;;;0.90;0.90;;;25.00;43.60;;;;;;4992846;28;20308;-45
2021/07/05 05:55:23;;;;;;;0.90;0.90;;;25.00;43.60;;;;;;4994399;28;20256;-56
2021/07/05 05:57:50;;;;;;;0.98;0.80;;;25.00;43.60;;;;;;4993004;28;20220;-44
2021/07/05 06:00:18;;;;;;;0.77;0.70;;;25.00;43.50;;;;;;4993622;28;20487;-47
2021/07/05 06:02:44;;;;;;;0.90;0.90;;;25.00;43.50;;;;;;4992466;28;20691;-51
2021/07/05 06:05:11;;;;;;;1.00;0.93;;;25.00;43.50;;;;;;4993134;28;20647;-52
2021/07/05 06:07:37;;;;;;;1.38;1.27;;;25.00;43.40;;;;;;4989090;28;20692;-42
2021/07/05 06:10:04;;;;;;;0.80;0.80;;;25.00;43.50;;;;;;4992682;28;20230;-41
2021/07/05 06:12:30;;;;;;;0.93;0.90;;;25.00;43.60;;;;;;4992577;28;20226;-41
2021/07/05 06:14:57;;;;;;;2.50;0.80;;;25.00;43.50;;;;;;4992244;28;20207;-40
2021/07/05 06:17:23;;;;;;;1.60;0.93;;;25.00;42.90;;;;;;4979804;28;20326;-38
2021/07/05 06:19:49;;;;;;;1.85;1.25;;;25.00;42.00;;;;;;4990439;28;20224;-41
2021/07/05 06:22:18;;;;;;;1.33;0.90;;;25.00;42.20;;;;;;4991564;28;20207;-39
2021/07/05 06:24:47;;;;;;;4.18;1.13;;;25.00;41.70;;;;;;4986750;28;20215;-45
2021/07/05 06:27:13;;;;;;;2.13;1.30;;;25.00;42.80;;;;;;4992244;28;20318;-46
2021/07/05 06:29:40;;;;;;;2.42;1.60;;;25.00;43.00;;;;;;4992478;28;20214;-46
2021/07/05 06:32:06;;;;;;;5.45;1.40;;;25.00;43.10;;;;;;4992293;28;20239;-41
2021/07/05 06:34:32;;;;;;;6.07;1.30;;;25.00;42.50;;;;;;4987534;28;20202;-41
2021/07/05 06:36:59;;;;;;;4.80;1.30;;;25.00;42.20;;;;;;4975120;28;20240;-42
2021/07/05 06:39:25;;;;;;;1.70;1.30;;;25.00;42.90;;;;;;4983985;28;20210;-47
2021/07/05 06:41:52;;;;;;;1.92;1.50;;;25.00;42.00;;;;;;4992398;28;20747;-46
2021/07/05 06:44:19;;;;;;;2.25;1.77;;;25.00;41.80;;;;;;4990966;28;20286;-53
2021/07/05 06:46:45;;;;;;;1.88;1.20;;;24.80;40.60;;;;;;4991791;28;20297;-43
2021/07/05 06:49:16;;;;;;;1.17;1.00;;;23.50;41.40;;;;;;4983345;28;20648;-41
2021/07/05 06:51:43;;;;;;;1.58;1.05;;;22.80;41.80;;;;;;4999010;28;20211;-46
2021/07/05 06:54:10;;;;;;;1.23;1.00;;;23.10;44.90;;;;;;4996712;28;20296;-44
2021/07/05 06:56:36;;;;;;;1.52;1.10;;;23.50;44.40;;;;;;4990923;28;20354;-46
2021/07/05 06:59:03;;;;;;;1.33;1.23;;;23.90;44.70;;;;;;4991045;28;20754;-46
2021/07/05 07:01:29;;;;;;;3.80;1.33;;;24.10;45.20;;;;;;4991018;28;20264;-50
2021/07/05 07:03:56;;;;;;;6.25;1.67;;;24.30;45.00;;;;;;4990446;28;20557;-47
2021/07/05 07:06:22;;;;;;;2.38;1.55;;;24.50;46.30;;;;;;4990183;28;20224;-53
2021/07/05 07:08:49;;;;;;;2.25;1.23;;;24.60;46.50;;;;;;4990980;28;20286;-40
2021/07/05 07:11:16;;;;;;;6.60;2.40;;;24.60;46.50;;;;;;4974722;28;20235;-43
2021/07/05 07:13:42;;;;;;;2.50;1.20;;;24.70;46.80;;;;;;4991629;28;20320;-39
2021/07/05 07:16:09;;;;;;;1.92;1.33;;;24.70;46.70;;;;;;4990193;28;20237;-38
2021/07/05 07:21:26;;;;;;;3.33;1.20;;;24.80;47.00;;;;;;4975670;28;20199;-43
2021/07/05 07:23:52;;;;;;;2.22;1.50;;;24.80;47.10;;;;;;4988752;28;20208;-44
2021/07/05 07:26:19;;;;;;;2.17;1.80;;;24.90;47.20;;;;;;4987702;28;20235;-44
2021/07/05 07:28:50;;;;;;;2.95;1.30;;;24.90;47.60;;;;;;4985410;28;20649;-43
2021/07/05 07:31:16;;;;;;;1.90;1.20;;;24.90;46.70;;;;;;4985799;28;20251;-46
2021/07/05 07:33:43;;;;;;;3.45;1.60;;;24.90;46.70;;;;;;4990386;28;20283;-46
2021/07/05 07:36:10;;;;;;;2.40;1.10;;;24.90;47.00;;;;;;5001278;28;20400;-45
2021/07/05 07:38:39;;;;;;;6.68;1.38;;;25.00;47.00;;;;;;4990791;28;20770;-41
2021/07/05 07:41:06;;;;;;;4.18;2.03;;;25.00;47.50;;;;;;4990323;28;20202;-46
2021/07/05 07:43:32;;;;;;;6.07;2.00;;;25.00;46.80;;;;;;4991481;28;20616;-51
2021/07/05 07:45:59;;;;;;;2.85;1.60;;;25.00;47.00;;;;;;4997954;28;20303;-40
2021/07/05 07:48:25;;;;;;;3.70;1.55;;;25.00;47.60;;;;;;4998234;28;20208;-40
2021/07/05 07:50:51;;;;;;;2.72;1.20;;;25.00;46.80;;;;;;4991653;28;20203;-49
2021/07/05 07:53:18;;;;;;;3.13;1.25;;;25.00;46.30;;;;;;5003242;28;20213;-46
2021/07/05 07:55:44;;;;;;;3.75;1.50;;;25.00;47.10;;;;;;4992778;28;20238;-39
2021/07/05 07:58:11;;;;;;;3.35;1.23;;;25.10;46.30;;;;;;4995342;28;20195;-39
2021/07/05 08:00:37;;;;;;;2.53;1.25;;;25.10;46.90;;;;;;4991474;28;20200;-54
2021/07/05 08:03:04;;;;;;;3.47;1.13;;;25.10;46.20;;;;;;5002775;28;22132;-45
2021/07/05 08:05:30;;;;;;;3.05;1.20;;;25.10;47.30;;;;;;4988736;28;20311;-52
2021/07/05 08:07:57;;;;;;;1.52;1.30;;;25.10;47.30;;;;;;4985890;28;20222;-48
2021/07/05 08:10:23;;;;;;;4.38;1.20;;;25.10;46.70;;;;;;4987645;28;20685;-43
2021/07/05 08:12:50;;;;;;;2.22;1.20;;;25.10;46.60;;;;;;4986481;28;20274;-39
2021/07/05 08:15:16;;;;;;;2.65;1.50;;;25.10;47.30;;;;;;4996007;28;20251;-46
2021/07/05 08:17:43;;;;;;;2.33;1.20;;;25.10;46.80;;;;;;4990850;28;20238;-45
2021/07/05 08:20:09;;;;;;;2.88;1.17;;;25.10;46.00;;;;;;4998917;28;20697;-44
2021/07/05 08:22:36;;;;;;;4.13;1.95;;;25.20;46.00;;;;;;4984578;28;20286;-39
2021/07/05 08:25:02;;;;;;;1.73;1.10;;;25.10;45.70;;;;;;4986216;28;20262;-43
2021/07/05 08:27:29;;;;;;;2.83;1.30;;;25.20;45.30;;;;;;4989595;28;20204;-39
2021/07/05 08:29:56;;;;;;;6.00;1.67;;;25.20;45.30;;;;;;4990358;28;20287;-40
2021/07/05 08:32:23;;;;;;;3.50;1.45;;;25.20;45.90;;;;;;4987846;28;20283;-39
2021/07/05 08:34:49;;;;;;;2.13;1.15;;;25.20;46.20;;;;;;4992568;28;20207;-34
2021/07/05 08:37:16;;;;;;;3.85;1.73;;;25.20;45.90;;;;;;5006500;28;20626;-38
2021/07/05 08:39:42;;;;;;;2.90;1.00;;;25.20;46.50;;;;;;4993030;28;20736;-41
2021/07/05 08:42:09;;;;;;;2.55;1.35;;;25.20;45.70;;;;;;5000145;28;20290;-41
2021/07/05 08:44:35;;;;;;;3.60;1.25;;;25.20;45.20;;;;;;4993018;28;20207;-37
2021/07/05 08:47:02;;;;;;;3.42;1.10;;;25.30;45.20;;;;;;4996800;28;20204;-48
2021/07/05 08:49:28;;;;;;;1.55;1.08;;;25.20;46.70;;;;;;4993590;28;20641;-47
2021/07/05 08:51:55;;;;;;;2.88;1.50;;;25.20;46.00;;;;;;4993478;28;20204;-45
2021/07/05 08:54:21;;;;;;;4.10;1.38;;;25.20;47.40;;;;;;5001239;28;20210;-46
2021/07/05 08:56:48;;;;;;;4.22;1.38;;;25.20;47.10;;;;;;5009555;28;20241;-44
2021/07/05 08:59:14;;;;;;;3.60;1.88;;;25.20;46.90;;;;;;4992044;28;20247;-47
2021/07/05 09:01:41;;;;;;;5.28;1.45;;;25.20;46.20;;;;;;4996764;28;20233;-47
2021/07/05 09:04:07;;;;;;;3.95;1.23;;;25.20;47.40;;;;;;5004750;28;20231;-44
2021/07/05 09:06:35;;;;;;;3.28;1.55;;;25.20;47.30;;;;;;5003058;28;20233;-47
2021/07/05 09:09:03;;;;;;;5.35;1.30;;;25.20;46.30;;;;;;4994828;28;20326;-40
2021/07/05 09:11:30;;;;;;;2.75;1.20;;;25.20;46.80;;;;;;5000187;28;20629;-47
2021/07/05 09:13:56;;;;;;;3.38;1.27;;;25.20;46.80;;;;;;4998825;28;20207;-44
2021/07/05 09:16:23;;;;;;;2.60;1.27;;;25.20;47.10;;;;;;4996482;28;20231;-44
2021/07/05 09:18:49;;;;;;;3.08;1.10;;;25.20;47.00;;;;;;5001611;28;20195;-43
2021/07/05 09:21:16;;;;;;;1.50;1.40;;;25.20;46.40;;;;;;4989471;28;20214;-48
2021/07/05 09:23:42;;;;;;;1.65;1.20;;;25.30;45.80;;;;;;4990480;28;20204;-46
2021/07/05 09:26:09;;;;;;;2.75;1.20;;;25.30;45.50;;;;;;4992906;28;20281;-44
2021/07/05 09:28:35;;;;;;;3.40;1.38;;;25.30;45.40;;;;;;5001616;28;20613;-47
2021/07/05 09:31:02;;;;;;;2.30;1.00;;;25.30;45.10;;;;;;4995816;28;21955;-47
2021/07/05 09:33:28;;;;;;;1.92;1.60;;;25.30;45.20;;;;;;4994353;28;20737;-50
2021/07/05 09:35:55;;;;;;;2.53;1.05;;;25.30;45.70;;;;;;4999545;28;20668;-48
2021/07/05 09:38:21;;;;;;;2.40;1.20;;;25.30;45.30;;;;;;4992221;28;20250;-47
2021/07/05 09:40:47;;;;;;;2.40;1.10;;;25.30;45.40;;;;;;4992929;28;20206;-49
2021/07/05 09:43:14;;;;;;;2.85;1.15;;;25.30;46.00;;;;;;4991069;28;20213;-50
2021/07/05 09:45:40;;;;;;;3.30;1.30;;;25.30;45.10;;;;;;4997167;28;20251;-47
2021/07/05 09:48:07;;;;;;;2.45;1.30;;;25.30;45.40;;;;;;4992006;28;20199;-50
2021/07/05 09:50:33;;;;;;;2.60;1.20;;;25.30;45.90;;;;;;4990937;28;20287;-51
2021/07/05 09:53:00;;;;;;;3.20;1.15;;;25.40;45.40;;;;;;4991987;28;20207;-41
2021/07/05 09:55:26;;;;;;;3.70;1.27;;;25.30;45.40;;;;;;4992965;28;20223;-47
2021/07/05 09:57:53;;;;;;;1.65;1.20;;;25.30;45.30;;;;;;4990895;28;20339;-45
2021/07/05 10:00:19;;;;;;;6.68;1.50;;;25.40;45.30;;;;;;4988306;28;20200;-47
2021/07/05 10:02:46;;;;;;;4.43;1.27;;;25.30;45.10;;;;;;4992475;28;20597;-45
2021/07/05 10:05:12;;;;;;;2.45;1.23;;;25.40;45.40;;;;;;4985035;28;20628;-44
2021/07/05 10:07:39;;;;;;;2.78;1.55;;;25.40;45.80;;;;;;4995531;28;20208;-44
2021/07/05 10:10:05;;;;;;;2.50;1.10;;;25.30;46.10;;;;;;4995484;28;20631;-45
2021/07/05 10:12:32;;;;;;;2.38;1.02;;;25.40;45.40;;;;;;4994286;28;20644;-40
2021/07/05 10:14:59;;;;;;;2.22;1.10;;;25.40;45.00;;;;;;4994060;28;20224;-43
2021/07/05 10:17:25;;;;;;;1.42;1.13;;;25.40;44.90;;;;;;4993680;28;20232;-42
2021/07/05 10:19:52;;;;;;;1.90;1.23;;;25.40;44.90;;;;;;4996885;28;20331;-45
2021/07/05 10:22:18;;;;;;;1.10;0.93;;;25.40;44.80;;;;;;4998583;28;20302;-42
2021/07/05 10:24:45;;;;;;;1.13;1.02;;;25.40;45.40;;;;;;4997451;28;20267;-43
2021/07/05 10:27:11;;;;;;;1.38;1.00;;;25.40;44.80;;;;;;4998606;28;20196;-41
2021/07/05 10:29:38;;;;;;;2.42;1.08;;;25.40;44.80;;;;;;4996206;28;20209;-42
2021/07/05 10:32:04;;;;;;;1.48;1.17;;;25.40;44.80;;;;;;4993920;28;20233;-40
2021/07/05 10:34:30;;;;;;;2.03;1.20;;;25.40;44.70;;;;;;4994613;28;20275;-41
2021/07/05 10:36:57;;;;;;;2.88;1.05;;;25.40;44.50;;;;;;5002242;28;20246;-46
2021/07/05 10:39:23;;;;;;;2.58;1.10;;;25.40;44.80;;;;;;4995925;28;20214;-42
2021/07/05 10:41:50;;;;;;;2.08;1.10;;;25.40;45.00;;;;;;4995844;28;20208;-42
2021/07/05 10:44:20;;;;;;;2.60;1.10;;;25.40;45.70;;;;;;4999812;28;20207;-43
2021/07/05 10:46:48;;;;;;;1.05;1.00;;;25.40;45.20;;;;;;4992319;28;20656;-46
2021/07/05 10:49:14;;;;;;;1.85;1.58;;;25.50;45.60;;;;;;4995319;28;20213;-43
2021/07/05 10:51:41;;;;;;;2.25;1.08;;;25.40;46.00;;;;;;5002192;28;20199;-47
2021/07/05 10:54:07;;;;;;;2.85;1.10;;;25.40;45.40;;;;;;4990788;28;20203;-44
2021/07/05 10:56:36;;;;;;;4.30;1.17;;;25.40;45.50;;;;;;4995708;28;20298;-46
2021/07/05 10:59:02;;;;;;;1.75;1.50;;;25.40;45.50;;;;;;4996313;28;20195;-41
2021/07/05 11:01:28;;;;;;;2.47;1.50;;;25.40;45.50;;;;;;4993345;28;20199;-45
2021/07/05 11:03:55;;;;;;;2.70;1.30;;;25.40;45.40;;;;;;4996810;28;20203;-41
2021/07/05 11:06:22;;;;;;;14.48;9.90;;;25.40;45.70;;;;;;5001827;28;20220;-55
2021/07/05 11:08:49;;;;;;;23.05;14.40;;;25.40;47.10;;;;;;4995619;28;20211;-44
2021/07/05 11:11:16;;;;;;;16.98;12.43;;;25.40;47.00;;;;;;4996598;28;20613;-42
2021/07/05 11:13:42;;;;;;;14.80;10.85;;;25.40;46.20;;;;;;4991370;28;20204;-46
2021/07/05 11:16:09;;;;;;;14.93;11.60;;;25.50;45.20;;;;;;5002661;28;20228;-49
2021/07/05 11:18:35;;;;;;;12.73;10.77;;;25.40;44.00;;;;;;4992334;28;20227;-46
2021/07/05 11:21:02;;;;;;;15.43;10.93;;;25.40;43.60;;;;;;4998020;28;20287;-48
2021/07/05 11:23:29;;;;;;;13.85;10.05;;;25.40;43.30;;;;;;4994280;28;20306;-45
2021/07/05 11:25:56;;;;;;;12.18;9.68;;;25.40;42.80;;;;;;4991127;28;20259;-48
2021/07/05 11:28:22;;;;;;;14.25;9.60;;;25.40;42.50;;;;;;4990610;28;21060;-45
2021/07/05 11:30:49;;;;;;;10.07;8.50;;;25.40;42.50;;;;;;4991109;28;20239;-46
2021/07/05 11:33:15;;;;;;;10.38;7.25;;;25.40;42.50;;;;;;4990300;28;20290;-49
2021/07/05 11:35:42;;;;;;;10.40;7.57;;;25.40;42.40;;;;;;4992196;28;20223;-47
2021/07/05 11:38:08;;;;;;;7.90;6.38;;;25.40;42.60;;;;;;4990770;28;20239;-46
2021/07/05 11:40:35;;;;;;;6.60;5.88;;;25.40;42.50;;;;;;4998076;28;20203;-46
2021/07/05 11:43:01;;;;;;;7.20;5.50;;;25.40;42.20;;;;;;5004270;28;20222;-48
2021/07/05 11:45:28;;;;;;;5.35;4.28;;;25.40;42.30;;;;;;5002608;28;20221;-49
2021/07/05 11:47:54;;;;;;;6.25;4.32;;;25.40;42.30;;;;;;5004910;28;20216;-47
2021/07/05 11:50:21;;;;;;;6.53;4.35;;;25.40;42.30;;;;;;5006094;28;21871;-46
2021/07/05 11:52:47;;;;;;;5.13;4.18;;;25.40;42.30;;;;;;4990247;28;20287;-46
2021/07/05 11:55:14;;;;;;;3.63;3.30;;;25.40;42.10;;;;;;4990607;28;20220;-47
2021/07/05 11:57:40;;;;;;;4.80;3.08;;;25.40;41.80;;;;;;4994250;28;20232;-49
2021/07/05 12:00:07;;;;;;;3.10;2.80;;;25.40;41.70;;;;;;4998820;28;20207;-43
2021/07/05 12:02:33;;;;;;;3.80;3.20;;;25.40;41.50;;;;;;4989642;28;20645;-50
2021/07/05 12:05:00;;;;;;;3.55;2.90;;;25.40;40.90;;;;;;4990462;28;20255;-47
2021/07/05 12:07:26;;;;;;;3.90;3.22;;;25.40;40.80;;;;;;4990523;28;20641;-45
2021/07/05 12:09:53;;;;;;;2.85;2.22;;;25.40;41.30;;;;;;4992718;28;20544;-46
2021/07/05 12:12:19;;;;;;;2.55;2.22;;;25.30;40.90;;;;;;4996365;28;20208;-50
2021/07/05 12:14:46;;;;;;;2.50;2.30;;;25.40;40.70;;;;;;4994546;28;20572;-43
2021/07/05 12:17:13;;;;;;;2.10;1.90;;;25.40;40.60;;;;;;4994959;28;20223;-43
2021/07/05 12:19:41;;;;;;;5.63;1.80;;;25.30;40.30;;;;;;4994316;28;20211;-45
2021/07/05 12:22:08;;;;;;;1.67;1.58;;;25.40;40.20;;;;;;4994927;28;20204;-45
2021/07/05 12:24:34;;;;;;;1.73;1.63;;;25.30;40.00;;;;;;4994197;28;20238;-43
2021/07/05 12:27:01;;;;;;;3.17;1.63;;;25.30;40.10;;;;;;4994311;28;20233;-45
2021/07/05 12:29:28;;;;;;;3.15;2.10;;;25.30;40.20;;;;;;4987754;28;20210;-44
2021/07/05 12:31:56;;;;;;;2.40;2.20;;;25.40;41.60;;;;;;4994594;28;20208;-43
2021/07/05 12:34:23;;;;;;;3.05;2.22;;;25.30;41.10;;;;;;4994178;28;20227;-44
2021/07/05 12:36:49;;;;;;;2.78;2.30;;;25.40;41.40;;;;;;4994822;28;20208;-43
2021/07/05 12:39:16;;;;;;;3.42;2.10;;;25.40;41.60;;;;;;4993065;28;20313;-50
2021/07/05 12:41:42;;;;;;;3.33;2.50;;;25.30;41.60;;;;;;4992367;28;20196;-51
2021/07/05 12:44:09;;;;;;;3.05;2.38;;;25.40;41.80;;;;;;4992823;28;20814;-44